Time;durP1;ratioP1;P1;durP2;ratioP2;P2;SDS_P1;SDS_P2;PMS_P1;PMS_P2;Temp;Humidity;BMP_temperature;BMP_pressure;BME280_temperature;BME280_humidity;BME280_pressure;Samples;Min_cycle;Max_cycle;Signal;HPM_P1;HPM_P2
2021/06/10 00:00:39;;;;;;;6.03;4.65;;;18.00;85.60;;;;;;5099690;28;20050;-74
2021/06/10 00:03:05;;;;;;;9.23;5.10;;;17.90;85.60;;;;;;5097813;28;20458;-74
2021/06/10 00:05:31;;;;;;;7.25;5.25;;;17.90;85.70;;;;;;5113027;28;20050;-74
2021/06/10 00:07:57;;;;;;;7.30;5.30;;;17.90;85.90;;;;;;5108848;28;20450;-74
2021/06/10 00:10:25;;;;;;;8.98;5.80;;;17.90;86.60;;;;;;5100398;28;20540;-74
2021/06/10 00:12:52;;;;;;;7.22;5.50;;;17.90;86.40;;;;;;5097840;28;20077;-75
2021/06/10 00:15:21;;;;;;;6.50;5.53;;;18.00;86.30;;;;;;5104742;28;20126;-74
2021/06/10 00:17:47;;;;;;;9.20;5.85;;;18.00;86.50;;;;;;5106005;28;20034;-74
2021/06/10 00:20:15;;;;;;;8.77;5.63;;;18.00;86.50;;;;;;5114537;28;20019;-74
2021/06/10 00:22:41;;;;;;;7.80;6.35;;;18.00;86.60;;;;;;5111167;28;20073;-76
2021/06/10 00:25:08;;;;;;;7.85;6.20;;;18.00;86.70;;;;;;5112146;28;20107;-74
2021/06/10 00:27:36;;;;;;;7.80;5.80;;;18.00;86.90;;;;;;5112384;28;20023;-74
2021/06/10 00:30:06;;;;;;;7.60;6.38;;;17.90;87.30;;;;;;5109561;28;20073;-74
2021/06/10 00:32:32;;;;;;;7.82;6.25;;;18.00;87.40;;;;;;5110594;28;20031;-74
2021/06/10 00:34:58;;;;;;;8.75;6.65;;;18.00;87.80;;;;;;5107630;28;20113;-74
2021/06/10 00:37:24;;;;;;;7.85;6.75;;;18.00;88.10;;;;;;5106926;28;20030;-74
2021/06/10 00:39:49;;;;;;;8.68;6.20;;;18.00;88.10;;;;;;5094424;28;20024;-74
2021/06/10 00:42:15;;;;;;;8.60;6.65;;;18.00;88.10;;;;;;5110751;28;20450;-74
2021/06/10 00:44:41;;;;;;;10.05;6.28;;;18.00;87.90;;;;;;5105125;28;20028;-75
2021/06/10 00:47:07;;;;;;;8.95;6.63;;;17.90;88.10;;;;;;5100392;28;20038;-74
2021/06/10 00:49:32;;;;;;;10.35;6.72;;;17.90;88.60;;;;;;5112757;28;20023;-74
2021/06/10 00:51:58;;;;;;;11.20;6.90;;;17.90;88.90;;;;;;5110070;28;20514;-74
2021/06/10 00:54:24;;;;;;;11.27;7.35;;;17.90;89.10;;;;;;5105726;28;20028;-74
2021/06/10 00:56:52;;;;;;;9.73;7.65;;;17.90;89.40;;;;;;5104175;28;20040;-74
2021/06/10 00:59:18;;;;;;;10.52;7.90;;;17.90;89.70;;;;;;5106764;28;20016;-74
2021/06/10 01:01:43;;;;;;;8.93;7.65;;;17.90;89.50;;;;;;5102916;28;20469;-73
2021/06/10 01:04:09;;;;;;;9.20;7.85;;;17.90;89.70;;;;;;5108269;28;20139;-74
2021/06/10 01:06:51;;;;;;;14.00;9.68;;;17.90;89.70;;;;;;5099051;28;20023;-74
2021/06/10 01:09:46;;;;;;;13.27;8.00;;;17.90;90.00;;;;;;5105240;28;20066;-74
2021/06/10 01:12:23;;;;;;;10.30;7.65;;;17.90;90.00;;;;;;5109595;28;20427;-73
2021/06/10 01:15:01;;;;;;;12.35;8.15;;;17.90;90.20;;;;;;5111090;28;20071;-74
2021/06/10 01:17:28;;;;;;;11.35;8.15;;;17.90;90.40;;;;;;5110970;28;20118;-73
2021/06/10 01:19:59;;;;;;;11.57;8.48;;;17.90;90.40;;;;;;5101848;28;20377;-73
2021/06/10 01:22:25;;;;;;;12.77;8.88;;;17.90;90.60;;;;;;5096097;28;20413;-74
2021/06/10 01:25:26;;;;;;;10.18;8.15;;;17.90;90.70;;;;;;5100212;28;20027;-74
2021/06/10 01:28:01;;;;;;;11.65;8.85;;;17.90;90.70;;;;;;5093312;28;20081;-74
2021/06/10 01:30:29;;;;;;;;;;;17.90;90.80;;;;;;5108311;28;20020;-75
2021/06/10 01:32:58;;;;;;;11.55;8.45;;;17.90;90.40;;;;;;5099768;28;19969;-72
2021/06/10 01:35:29;;;;;;;13.52;8.73;;;17.90;90.80;;;;;;5107867;28;20032;-73
2021/06/10 01:37:57;;;;;;;11.57;8.77;;;17.90;90.90;;;;;;5102061;28;20067;-74
2021/06/10 01:40:26;;;;;;;12.90;8.95;;;18.00;91.20;;;;;;5098709;28;20031;-73
2021/06/10 01:42:54;;;;;;;9.85;8.77;;;18.00;91.20;;;;;;5113437;28;20016;-74
2021/06/10 01:45:21;;;;;;;10.23;9.15;;;18.00;91.10;;;;;;5111674;28;20097;-73
2021/06/10 01:47:48;;;;;;;11.20;8.85;;;18.10;91.30;;;;;;5107925;28;20024;-73
2021/06/10 01:50:15;;;;;;;12.93;9.38;;;18.00;91.40;;;;;;5113559;28;20023;-73
2021/06/10 01:52:43;;;;;;;12.27;9.55;;;18.10;91.40;;;;;;5115414;28;20115;-73
2021/06/10 01:55:12;;;;;;;10.52;9.23;;;18.10;91.60;;;;;;5113316;28;20036;-74
2021/06/10 01:57:39;;;;;;;11.57;9.50;;;18.10;91.50;;;;;;5103171;28;20024;-74
2021/06/10 02:00:10;;;;;;;12.55;9.77;;;18.10;91.70;;;;;;5113150;28;20084;-74
2021/06/10 02:02:37;;;;;;;12.50;10.07;;;18.10;91.60;;;;;;5124491;27;20050;-74
2021/06/10 02:05:06;;;;;;;12.32;10.25;;;18.10;91.60;;;;;;5104726;28;20488;-74
2021/06/10 02:07:35;;;;;;;11.00;9.57;;;18.20;91.70;;;;;;5107472;28;20490;-74
2021/06/10 02:10:01;;;;;;;12.75;9.43;;;18.20;91.80;;;;;;5114254;28;20124;-73
2021/06/10 02:12:26;;;;;;;11.82;9.27;;;18.20;91.80;;;;;;5105289;28;20039;-75
2021/06/10 02:14:53;;;;;;;12.85;9.30;;;18.30;91.90;;;;;;5113649;28;20398;-74
2021/06/10 02:17:18;;;;;;;11.73;9.65;;;18.20;91.80;;;;;;5107180;28;20027;-75
2021/06/10 02:19:44;;;;;;;14.80;11.05;;;18.30;91.80;;;;;;5108072;28;20023;-74
2021/06/10 02:22:10;;;;;;;12.15;9.32;;;18.30;91.70;;;;;;5107356;28;20385;-74
2021/06/10 02:24:36;;;;;;;12.73;10.05;;;18.40;91.90;;;;;;5108477;28;20024;-73
2021/06/10 02:27:01;;;;;;;11.70;9.68;;;18.40;91.80;;;;;;5112791;28;20035;-74
2021/06/10 02:29:27;;;;;;;12.82;9.90;;;18.40;91.80;;;;;;5112309;28;20019;-73
2021/06/10 02:31:53;;;;;;;11.93;9.88;;;18.40;92.00;;;;;;5111054;28;20050;-73
2021/06/10 02:34:19;;;;;;;12.30;10.32;;;18.40;92.00;;;;;;5106833;28;20153;-74
2021/06/10 02:36:46;;;;;;;13.30;10.18;;;18.40;92.00;;;;;;5101051;28;20039;-73
2021/06/10 02:39:14;;;;;;;12.45;10.48;;;18.50;91.90;;;;;;5108983;28;20024;-74
2021/06/10 02:41:46;;;;;;;12.90;10.73;;;18.50;92.00;;;;;;5113038;28;20027;-73
2021/06/10 02:44:13;;;;;;;13.30;11.90;;;18.50;91.90;;;;;;5101985;28;20024;-73
2021/06/10 02:46:41;;;;;;;11.15;9.95;;;18.60;91.80;;;;;;5112756;28;20023;-73
2021/06/10 02:49:11;;;;;;;14.40;11.07;;;18.60;91.80;;;;;;5109063;28;20028;-73
2021/06/10 02:51:38;;;;;;;12.13;10.80;;;18.60;91.70;;;;;;5108682;28;20023;-74
2021/06/10 02:54:06;;;;;;;13.05;10.80;;;18.70;91.60;;;;;;5106584;28;20039;-73
2021/06/10 02:56:35;;;;;;;15.25;10.57;;;18.70;91.50;;;;;;5107237;28;20478;-74
2021/06/10 02:59:02;;;;;;;12.05;10.75;;;18.70;91.70;;;;;;5104176;28;20465;-73
2021/06/10 03:01:30;;;;;;;14.65;11.20;;;18.70;91.30;;;;;;5114732;28;20110;-73
2021/06/10 03:03:56;;;;;;;12.77;10.52;;;18.70;91.20;;;;;;5105038;28;20024;-70
2021/06/10 03:06:23;;;;;;;13.48;10.32;;;18.70;91.30;;;;;;5101137;28;20027;-69
2021/06/10 03:08:53;;;;;;;13.80;10.93;;;18.80;91.40;;;;;;5098203;28;20144;-70
2021/06/10 03:11:21;;;;;;;12.52;10.30;;;18.90;91.30;;;;;;5107660;28;20024;-68
2021/06/10 03:13:48;;;;;;;16.85;11.68;;;18.90;91.10;;;;;;5108771;28;20040;-73
2021/06/10 03:16:15;;;;;;;14.85;10.95;;;18.90;90.90;;;;;;5103458;28;20187;-72
2021/06/10 03:18:41;;;;;;;15.32;11.18;;;18.90;91.00;;;;;;5108050;28;20084;-74
2021/06/10 03:21:07;;;;;;;14.40;10.23;;;18.90;91.10;;;;;;5098698;28;20086;-73
2021/06/10 03:23:33;;;;;;;13.27;11.10;;;19.00;91.20;;;;;;5095353;28;20138;-73
2021/06/10 03:26:01;;;;;;;12.57;10.40;;;19.00;91.10;;;;;;5096426;28;20060;-72
2021/06/10 03:28:29;;;;;;;10.98;9.70;;;19.10;91.10;;;;;;5113683;28;20019;-74
2021/06/10 03:30:55;;;;;;;13.48;11.15;;;19.20;91.00;;;;;;5110333;28;20037;-76
2021/06/10 03:33:23;;;;;;;12.80;10.63;;;19.30;90.90;;;;;;5112586;28;20031;-74
2021/06/10 03:35:49;;;;;;;14.40;10.70;;;19.30;90.60;;;;;;5109992;28;20032;-71
2021/06/10 03:38:17;;;;;;;12.27;10.45;;;19.40;90.40;;;;;;5110818;28;20066;-72
2021/06/10 03:40:47;;;;;;;15.32;10.63;;;19.40;90.40;;;;;;5111884;28;20032;-73
2021/06/10 03:43:14;;;;;;;13.13;10.10;;;19.50;90.20;;;;;;5109846;28;20110;-72
2021/06/10 03:45:39;;;;;;;12.95;10.68;;;19.60;89.90;;;;;;5106930;28;20024;-72
2021/06/10 03:48:08;;;;;;;13.82;10.70;;;19.70;89.60;;;;;;5104696;28;20114;-77
2021/06/10 03:50:36;;;;;;;14.02;10.57;;;19.70;89.20;;;;;;5111269;28;20019;-77
2021/06/10 03:53:03;;;;;;;12.23;10.77;;;19.70;88.80;;;;;;5113323;28;20055;-76
2021/06/10 03:55:29;;;;;;;14.57;10.63;;;19.80;88.80;;;;;;5109033;28;20110;-74
2021/06/10 03:57:55;;;;;;;14.77;10.95;;;19.90;88.50;;;;;;5111858;28;20446;-75
2021/06/10 04:00:21;;;;;;;12.07;9.75;;;20.00;88.10;;;;;;5105964;28;20440;-76
2021/06/10 04:02:46;;;;;;;14.13;10.85;;;20.10;87.80;;;;;;5110077;28;20032;-76
2021/06/10 04:05:12;;;;;;;12.43;10.23;;;20.20;87.30;;;;;;5110188;28;20111;-76
2021/06/10 04:07:38;;;;;;;16.08;10.93;;;20.40;86.60;;;;;;5108616;28;20024;-76
2021/06/10 04:10:05;;;;;;;14.68;11.10;;;20.50;86.00;;;;;;5107478;28;20390;-77
2021/06/10 04:12:31;;;;;;;16.02;11.80;;;20.60;86.00;;;;;;5107526;28;20027;-75
2021/06/10 04:14:57;;;;;;;12.77;10.77;;;20.60;84.80;;;;;;5108008;28;20050;-74
2021/06/10 04:17:23;;;;;;;12.80;10.57;;;20.60;84.70;;;;;;5112279;28;20028;-74
2021/06/10 04:19:48;;;;;;;20.05;10.75;;;20.70;84.90;;;;;;5114310;28;20024;-74
2021/06/10 04:22:14;;;;;;;16.70;11.88;;;20.80;84.00;;;;;;5108766;28;20127;-74
2021/06/10 04:24:40;;;;;;;14.93;10.80;;;20.90;83.70;;;;;;5107763;28;20118;-74
2021/06/10 04:27:06;;;;;;;13.48;10.52;;;21.00;83.60;;;;;;5107697;28;20027;-74
2021/06/10 04:29:32;;;;;;;13.05;10.52;;;21.10;82.90;;;;;;5106309;28;20028;-75
2021/06/10 04:31:58;;;;;;;13.10;11.07;;;21.30;82.40;;;;;;5113182;28;20031;-74
2021/06/10 04:34:23;;;;;;;12.82;10.95;;;21.30;81.60;;;;;;5105640;28;20024;-74
2021/06/10 04:36:49;;;;;;;14.85;10.80;;;21.50;81.30;;;;;;5104790;28;20040;-75
2021/06/10 04:39:15;;;;;;;15.00;11.30;;;21.70;80.80;;;;;;5107568;28;20114;-74
2021/06/10 04:41:41;;;;;;;12.70;11.02;;;21.80;80.10;;;;;;5111003;28;20020;-76
2021/06/10 04:44:06;;;;;;;13.70;10.88;;;21.90;79.40;;;;;;5116366;28;20367;-78
2021/06/10 04:46:35;;;;;;;16.40;11.18;;;21.90;78.80;;;;;;5111410;28;20023;-77
2021/06/10 04:49:01;;;;;;;13.85;10.80;;;21.90;78.60;;;;;;5112706;28;20028;-75
2021/06/10 04:51:27;;;;;;;15.77;10.52;;;21.90;78.50;;;;;;5111172;28;20066;-73
2021/06/10 04:53:56;;;;;;;15.98;10.95;;;22.20;79.20;;;;;;5109094;28;20513;-73
2021/06/10 04:56:23;;;;;;;13.02;10.30;;;22.60;78.30;;;;;;5110400;28;20058;-74
2021/06/10 04:58:49;;;;;;;11.85;10.00;;;22.90;77.10;;;;;;5106786;28;20054;-76
2021/06/10 05:01:15;;;;;;;13.20;10.23;;;23.10;75.50;;;;;;5111066;28;20057;-75
2021/06/10 05:03:41;;;;;;;11.10;9.90;;;23.20;74.80;;;;;;5105157;28;20020;-75
2021/06/10 05:06:09;;;;;;;13.40;9.68;;;23.50;74.50;;;;;;5104889;28;20084;-73
2021/06/10 05:08:35;;;;;;;11.27;9.40;;;23.70;73.40;;;;;;5109280;28;20485;-73
2021/06/10 05:11:01;;;;;;;10.70;9.60;;;24.10;72.30;;;;;;5100356;28;20032;-73
2021/06/10 05:13:27;;;;;;;9.82;8.85;;;24.50;71.30;;;;;;5104536;28;20157;-74
2021/06/10 05:15:53;;;;;;;12.88;9.25;;;24.80;70.30;;;;;;5110713;28;20114;-73
2021/06/10 05:18:18;;;;;;;11.00;8.93;;;24.90;68.80;;;;;;5102030;28;20047;-73
2021/06/10 05:20:45;;;;;;;10.48;8.93;;;24.90;68.50;;;;;;5102342;28;20035;-75
2021/06/10 05:23:11;;;;;;;12.60;9.50;;;24.90;68.10;;;;;;5105807;28;20106;-75
2021/06/10 05:25:36;;;;;;;14.70;9.63;;;24.80;67.60;;;;;;5101977;28;20055;-75
2021/06/10 05:28:03;;;;;;;11.30;9.38;;;24.70;67.50;;;;;;5100128;28;20486;-75
2021/06/10 05:30:29;;;;;;;11.75;9.95;;;24.70;67.80;;;;;;5096484;28;20050;-75
2021/06/10 05:32:55;;;;;;;11.50;9.95;;;24.70;67.60;;;;;;5097582;28;20455;-75
2021/06/10 05:35:21;;;;;;;13.93;10.40;;;24.80;67.60;;;;;;5100890;28;20470;-74
2021/06/10 05:37:47;;;;;;;10.88;9.60;;;24.70;67.20;;;;;;5101663;28;20032;-75
2021/06/10 05:40:14;;;;;;;11.68;10.13;;;24.80;68.20;;;;;;5094771;28;20024;-74
2021/06/10 05:42:40;;;;;;;11.40;9.95;;;24.80;67.60;;;;;;5091997;28;20119;-74
2021/06/10 05:45:07;;;;;;;11.65;10.45;;;24.70;67.50;;;;;;5098033;28;20111;-74
2021/06/10 05:47:33;;;;;;;13.80;10.05;;;24.70;67.30;;;;;;5098007;28;20020;-75
2021/06/10 05:49:58;;;;;;;11.85;9.80;;;24.70;66.90;;;;;;5095268;28;20471;-74
2021/06/10 05:52:25;;;;;;;12.45;9.68;;;24.70;67.10;;;;;;5097679;28;20046;-75
2021/06/10 05:54:51;;;;;;;11.00;9.60;;;24.70;66.90;;;;;;5095305;28;20025;-75
2021/06/10 05:57:17;;;;;;;14.10;10.23;;;24.50;66.90;;;;;;5100003;28;20112;-72
2021/06/10 05:59:46;;;;;;;12.48;10.25;;;24.40;67.10;;;;;;5100396;28;20119;-81
2021/06/10 06:02:12;;;;;;;11.55;10.18;;;24.20;67.20;;;;;;5093757;28;20020;-79
2021/06/10 06:04:38;;;;;;;15.82;13.57;;;24.00;67.80;;;;;;5102945;28;20026;-74
2021/06/10 06:07:04;;;;;;;11.88;10.55;;;23.90;68.20;;;;;;5110681;28;20035;-76
2021/06/10 06:09:30;;;;;;;12.85;10.45;;;23.70;68.50;;;;;;5105683;28;20119;-70
2021/06/10 06:11:56;;;;;;;13.25;10.73;;;23.60;68.90;;;;;;5101027;28;20119;-73
2021/06/10 06:14:28;;;;;;;12.90;10.48;;;23.50;69.20;;;;;;5097418;28;20051;-72
2021/06/10 06:16:53;;;;;;;11.77;10.57;;;23.50;69.70;;;;;;5101659;28;20081;-73
2021/06/10 06:19:20;;;;;;;15.45;10.77;;;23.30;69.80;;;;;;5102080;28;20032;-72
2021/06/10 06:21:45;;;;;;;13.88;11.55;;;23.20;70.00;;;;;;5108573;28;20035;-73
2021/06/10 06:24:13;;;;;;;13.88;11.50;;;23.10;70.20;;;;;;5107960;28;20157;-72
2021/06/10 06:26:39;;;;;;;15.18;11.75;;;23.00;70.80;;;;;;5108717;28;20024;-73
2021/06/10 06:29:05;;;;;;;14.57;11.52;;;23.00;71.40;;;;;;5104901;28;20027;-76
2021/06/10 06:31:31;;;;;;;16.05;11.52;;;23.00;71.60;;;;;;5094820;28;20077;-76
2021/06/10 06:33:57;;;;;;;18.33;11.90;;;23.00;71.60;;;;;;5098873;28;20031;-78
2021/06/10 06:36:24;;;;;;;14.73;12.10;;;23.10;71.70;;;;;;5109778;28;20050;-76
2021/06/10 06:38:49;;;;;;;12.88;11.50;;;23.10;71.50;;;;;;5104281;28;20472;-76
2021/06/10 06:41:15;;;;;;;14.77;11.32;;;23.20;71.70;;;;;;5107593;27;20028;-76
2021/06/10 06:43:41;;;;;;;14.73;11.98;;;23.20;71.60;;;;;;5111149;28;20032;-77
2021/06/10 06:46:09;;;;;;;13.70;11.95;;;23.30;71.80;;;;;;5111482;28;20060;-70
2021/06/10 06:48:35;;;;;;;14.05;11.23;;;23.30;71.30;;;;;;5108596;28;20058;-70
2021/06/10 06:51:01;;;;;;;13.50;11.32;;;23.40;71.70;;;;;;5107097;28;20051;-73
2021/06/10 06:53:31;;;;;;;14.38;12.00;;;23.60;71.80;;;;;;5110594;28;20024;-70
2021/06/10 06:56:00;;;;;;;16.38;11.65;;;23.70;71.10;;;;;;5113297;28;20027;-70
2021/06/10 06:58:26;;;;;;;18.67;12.13;;;23.90;71.40;;;;;;5106079;28;20047;-70
2021/06/10 07:00:53;;;;;;;14.57;12.52;;;24.20;71.80;;;;;;5105254;28;20034;-68
2021/06/10 07:03:19;;;;;;;14.48;11.77;;;24.50;71.00;;;;;;5105621;28;20035;-69
2021/06/10 07:05:45;;;;;;;13.68;11.43;;;24.70;70.40;;;;;;5109519;27;20118;-74
2021/06/10 07:08:11;;;;;;;13.93;12.45;;;25.10;69.80;;;;;;5101574;28;20107;-74
2021/06/10 07:10:37;;;;;;;11.98;10.73;;;25.60;69.20;;;;;;5101280;28;20131;-75
2021/06/10 07:13:03;;;;;;;14.75;11.50;;;26.00;67.90;;;;;;5105494;28;20520;-75
2021/06/10 07:15:29;;;;;;;12.02;10.77;;;26.30;66.30;;;;;;5109374;28;20127;-74
2021/06/10 07:17:55;;;;;;;12.20;10.35;;;26.70;65.50;;;;;;5109447;28;20359;-74
2021/06/10 07:20:22;;;;;;;14.20;11.90;;;27.20;65.40;;;;;;5107173;28;20028;-74
2021/06/10 07:22:48;;;;;;;13.45;10.65;;;27.90;63.60;;;;;;5105554;28;20023;-74
2021/06/10 07:25:14;;;;;;;13.35;10.82;;;28.40;62.30;;;;;;5105664;28;20039;-84
2021/06/10 07:27:41;;;;;;;9.65;8.65;;;28.70;60.90;;;;;;5103085;28;20028;-74
2021/06/10 07:30:07;;;;;;;10.52;9.32;;;28.90;59.20;;;;;;5109033;28;20107;-78
2021/06/10 07:32:33;;;;;;;12.02;9.40;;;29.10;59.10;;;;;;5101499;28;20021;-74
2021/06/10 07:34:59;;;;;;;12.45;9.52;;;29.40;58.70;;;;;;5111164;27;20056;-74
2021/06/10 07:37:25;;;;;;;11.45;9.63;;;29.70;57.50;;;;;;5103679;28;21681;-82
2021/06/10 07:39:51;;;;;;;11.63;10.43;;;29.70;56.50;;;;;;5110881;28;20023;-85
2021/06/10 07:42:17;;;;;;;13.10;10.25;;;29.40;56.10;;;;;;5113171;28;20023;-73
2021/06/10 07:44:43;;;;;;;12.52;9.80;;;29.20;56.60;;;;;;5112954;28;20474;-72
2021/06/10 07:47:09;;;;;;;11.95;10.70;;;29.20;57.20;;;;;;5107766;28;20035;-74
2021/06/10 07:49:35;;;;;;;13.20;10.27;;;29.20;57.60;;;;;;5110294;28;20111;-75
2021/06/10 07:52:02;;;;;;;14.70;12.10;;;29.30;57.00;;;;;;5099840;28;20028;-69
2021/06/10 07:54:28;;;;;;;12.52;9.40;;;29.10;56.20;;;;;;5104749;28;20025;-74
2021/06/10 07:56:54;;;;;;;11.15;8.27;;;28.90;56.00;;;;;;5109990;28;20062;-73
2021/06/10 07:59:27;;;;;;;8.52;6.47;;;28.70;56.30;;;;;;5109066;28;20059;-74
2021/06/10 08:01:54;;;;;;;7.40;6.10;;;28.50;55.60;;;;;;5102962;28;20029;-74
2021/06/10 08:04:20;;;;;;;7.72;6.68;;;28.20;55.20;;;;;;5112197;28;20031;-73
2021/06/10 08:06:45;;;;;;;8.07;5.75;;;28.20;55.90;;;;;;5101143;28;20369;-75
2021/06/10 08:09:11;;;;;;;7.10;5.57;;;28.40;56.80;;;;;;5094779;28;20020;-75
2021/06/10 08:11:45;;;;;;;6.70;4.68;;;28.70;57.60;;;;;;5099528;28;20462;-74
2021/06/10 08:14:14;;;;;;;4.72;3.88;;;29.50;56.60;;;;;;5106968;28;20150;-74
2021/06/10 08:16:40;;;;;;;5.65;4.03;;;30.10;54.10;;;;;;5100188;28;20127;-75
2021/06/10 08:19:06;;;;;;;5.68;4.30;;;30.80;53.00;;;;;;5097709;28;20529;-74
2021/06/10 08:21:32;;;;;;;10.30;5.13;;;31.40;52.20;;;;;;5106113;28;20016;-74
2021/06/10 08:23:58;;;;;;;9.15;4.43;;;31.90;51.20;;;;;;5105671;28;20114;-74
2021/06/10 08:26:24;;;;;;;6.75;4.47;;;32.40;49.40;;;;;;5098367;28;20030;-74
2021/06/10 08:28:50;;;;;;;6.32;3.60;;;32.70;49.10;;;;;;5101617;28;20031;-74
2021/06/10 08:31:16;;;;;;;7.20;3.40;;;33.00;48.10;;;;;;5106500;28;20102;-74
2021/06/10 08:33:43;;;;;;;5.40;4.00;;;33.30;47.30;;;;;;5101330;28;20034;-74
2021/06/10 08:36:09;;;;;;;4.10;3.13;;;33.40;46.70;;;;;;5098255;28;20047;-74
2021/06/10 08:38:36;;;;;;;4.90;3.42;;;33.60;46.00;;;;;;5105273;28;20111;-74
2021/06/10 08:41:03;;;;;;;4.45;2.92;;;33.60;45.60;;;;;;5106560;28;20080;-74
2021/06/10 08:43:30;;;;;;;4.45;2.83;;;33.60;45.30;;;;;;5099230;28;20111;-74
2021/06/10 08:46:03;;;;;;;4.53;2.83;;;33.80;45.00;;;;;;5101714;28;20032;-74
2021/06/10 08:48:42;;;;;;;4.30;3.00;;;33.70;44.10;;;;;;5091877;28;20024;-75
2021/06/10 08:51:10;;;;;;;3.35;3.05;;;33.60;44.70;;;;;;5092759;28;20624;-75
2021/06/10 08:53:36;;;;;;;3.80;3.30;;;33.70;45.20;;;;;;5091225;28;20028;-75
2021/06/10 08:56:03;;;;;;;4.63;3.22;;;33.90;45.00;;;;;;5093435;28;20106;-74
2021/06/10 08:58:30;;;;;;;3.75;2.97;;;34.10;45.20;;;;;;5091628;28;20131;-74
2021/06/10 09:00:57;;;;;;;5.30;3.83;;;34.20;44.50;;;;;;5092111;28;20111;-74
2021/06/10 09:03:29;;;;;;;4.28;3.60;;;34.20;44.10;;;;;;5092642;28;20070;-74
2021/06/10 09:06:10;;;;;;;5.03;3.55;;;34.10;44.70;;;;;;5106169;28;20028;-74
2021/06/10 09:08:41;;;;;;;4.57;3.08;;;34.10;44.40;;;;;;5103431;28;20096;-75
2021/06/10 09:11:12;;;;;;;3.60;3.00;;;33.90;43.90;;;;;;5092378;28;20032;-75
2021/06/10 09:14:07;;;;;;;4.95;2.70;;;33.90;44.20;;;;;;5093802;28;20077;-75
2021/06/10 09:16:35;;;;;;;3.67;2.72;;;33.90;43.50;;;;;;5100242;28;20032;-75
2021/06/10 09:19:13;;;;;;;6.28;2.47;;;34.10;43.50;;;;;;5112817;28;20063;-77
2021/06/10 09:21:57;;;;;;;5.28;3.30;;;34.20;44.60;;;;;;5100193;28;20526;-75
2021/06/10 09:24:32;;;;;;;4.63;3.20;;;34.40;43.90;;;;;;5107983;28;20038;-76
2021/06/10 09:26:59;;;;;;;5.03;2.95;;;34.50;42.70;;;;;;5104521;28;20377;-75
2021/06/10 09:29:44;;;;;;;3.83;2.90;;;34.60;43.00;;;;;;5093022;28;20056;-73
2021/06/10 09:32:25;;;;;;;4.78;3.45;;;34.60;43.40;;;;;;5104323;28;20452;-75
2021/06/10 09:34:55;;;;;;;3.90;2.72;;;34.70;42.40;;;;;;5104041;28;20020;-73
2021/06/10 09:37:31;;;;;;;4.82;3.40;;;34.90;42.70;;;;;;5095693;28;20042;-74
2021/06/10 09:39:58;;;;;;;3.78;2.70;;;34.80;42.00;;;;;;5094087;28;20054;-74
2021/06/10 09:42:30;;;;;;;3.28;2.85;;;34.70;41.90;;;;;;5093169;28;20518;-74
2021/06/10 09:44:59;;;;;;;3.97;3.10;;;34.80;40.80;;;;;;5091916;28;20054;-73
2021/06/10 09:47:33;;;;;;;6.82;3.20;;;34.90;41.90;;;;;;5095978;28;20463;-74
2021/06/10 09:50:18;;;;;;;6.25;3.33;;;34.80;42.20;;;;;;5091654;28;20081;-74
2021/06/10 09:52:53;;;;;;;3.92;2.60;;;34.50;41.80;;;;;;5091010;28;20020;-75
2021/06/10 09:55:27;;;;;;;3.97;2.80;;;34.10;41.30;;;;;;5092608;28;20039;-75
2021/06/10 09:57:55;;;;;;;6.90;3.00;;;33.40;40.80;;;;;;5091348;28;20027;-75
2021/06/10 10:00:25;;;;;;;3.55;2.63;;;32.90;41.40;;;;;;5091091;28;20081;-75
2021/06/10 10:02:51;;;;;;;5.38;2.70;;;32.50;42.50;;;;;;5091145;28;20471;-74
2021/06/10 10:05:22;;;;;;;3.10;2.60;;;32.00;41.80;;;;;;5095323;28;20024;-74
2021/06/10 10:07:48;;;;;;;4.00;2.67;;;31.50;41.80;;;;;;5096653;28;20043;-74
2021/06/10 10:10:14;;;;;;;3.17;2.30;;;31.20;42.50;;;;;;5095393;28;20068;-74
2021/06/10 10:12:43;;;;;;;4.22;2.88;;;31.00;42.40;;;;;;5094631;28;20432;-74
2021/06/10 10:15:10;;;;;;;4.20;3.10;;;30.80;44.60;;;;;;5096724;28;20130;-74
2021/06/10 10:17:36;;;;;;;7.53;3.15;;;30.50;44.80;;;;;;5101728;28;20032;-74
2021/06/10 10:20:04;;;;;;;7.22;2.95;;;30.40;44.90;;;;;;5096760;28;20020;-74
2021/06/10 10:22:31;;;;;;;4.80;3.30;;;30.20;44.60;;;;;;5095947;28;20056;-74
2021/06/10 10:24:59;;;;;;;7.22;4.20;;;30.00;45.40;;;;;;5095022;28;20026;-74
2021/06/10 10:27:25;;;;;;;6.80;4.60;;;29.70;46.90;;;;;;5094973;28;20031;-74
2021/06/10 10:29:51;;;;;;;8.43;4.45;;;29.60;48.10;;;;;;5094846;28;20039;-74
2021/06/10 10:32:26;;;;;;;5.80;4.80;;;29.40;49.10;;;;;;5094946;28;20031;-75
2021/06/10 10:34:52;;;;;;;7.03;5.13;;;29.10;49.80;;;;;;5094621;28;20141;-75
2021/06/10 10:37:25;;;;;;;5.50;4.82;;;29.10;50.80;;;;;;5096076;28;20501;-74
2021/06/10 10:39:53;;;;;;;5.88;5.10;;;29.00;50.40;;;;;;5094674;28;20047;-74
2021/06/10 10:42:36;;;;;;;7.07;5.18;;;29.00;51.00;;;;;;5094822;28;20021;-74
2021/06/10 10:45:21;;;;;;;6.90;5.43;;;29.20;51.00;;;;;;5100712;28;20103;-75
2021/06/10 10:48:03;;;;;;;7.35;5.00;;;29.30;51.30;;;;;;5095940;28;20046;-74
2021/06/10 10:50:32;;;;;;;8.20;4.20;;;29.30;51.40;;;;;;5095367;28;20042;-74
2021/06/10 10:52:58;;;;;;;6.35;5.13;;;29.10;51.00;;;;;;5095936;28;20045;-75
2021/06/10 10:55:30;;;;;;;6.72;5.35;;;29.10;51.40;;;;;;5097336;28;20024;-73
2021/06/10 10:58:08;;;;;;;6.97;5.03;;;29.00;51.70;;;;;;5095872;28;20024;-74
2021/06/10 11:00:46;;;;;;;6.28;5.13;;;29.00;51.80;;;;;;5095473;28;20054;-74
2021/06/10 11:03:17;;;;;;;5.80;5.10;;;29.20;51.20;;;;;;5099936;28;20024;-74
2021/06/10 11:05:44;;;;;;;7.95;5.25;;;29.30;51.40;;;;;;5098290;28;20039;-74
2021/06/10 11:08:10;;;;;;;6.68;5.28;;;29.50;51.10;;;;;;5097032;28;20024;-74
2021/06/10 11:10:51;;;;;;;6.95;5.45;;;29.60;51.10;;;;;;5100659;28;20028;-74
2021/06/10 11:13:28;;;;;;;13.13;9.70;;;29.60;51.10;;;;;;5104940;28;20098;-74
2021/06/10 11:16:03;;;;;;;7.50;5.90;;;29.60;51.50;;;;;;5096426;28;20054;-73
2021/06/10 11:18:44;;;;;;;6.78;5.57;;;29.70;51.90;;;;;;5094237;28;20028;-74
2021/06/10 11:21:33;;;;;;;6.50;4.97;;;29.50;51.50;;;;;;5096531;28;20017;-74
2021/06/10 11:24:21;;;;;;;5.55;4.90;;;29.30;51.30;;;;;;5096365;28;20028;-73
2021/06/10 11:27:13;;;;;;;6.50;5.10;;;29.00;51.00;;;;;;5095602;28;20055;-74
2021/06/10 11:30:17;;;;;;;7.70;4.60;;;28.90;51.70;;;;;;5091702;28;20031;-73
2021/06/10 11:33:05;;;;;;;7.85;5.00;;;28.70;51.40;;;;;;5094316;28;20031;-75
2021/06/10 11:35:44;;;;;;;5.93;5.10;;;28.40;52.00;;;;;;5093348;28;20135;-75
2021/06/10 11:38:09;;;;;;;9.02;6.32;;;28.20;52.90;;;;;;5093849;28;20028;-74
2021/06/10 11:40:35;;;;;;;6.88;6.05;;;28.10;53.20;;;;;;5100467;28;20474;-75
2021/06/10 11:43:08;;;;;;;6.90;6.10;;;28.10;54.20;;;;;;5094748;28;20419;-74
2021/06/10 11:45:34;;;;;;;7.55;5.90;;;27.90;54.00;;;;;;5094073;28;20024;-74
2021/06/10 11:48:00;;;;;;;7.40;5.72;;;27.60;54.60;;;;;;5093647;28;20062;-74
2021/06/10 11:50:30;;;;;;;5.95;5.28;;;27.40;55.20;;;;;;5093017;28;21354;-74
2021/06/10 11:53:02;;;;;;;11.43;6.05;;;27.20;55.20;;;;;;5093471;28;20051;-74
2021/06/10 11:55:30;;;;;;;13.63;6.53;;;26.90;56.00;;;;;;5094375;28;20039;-74
2021/06/10 11:58:11;;;;;;;8.18;6.63;;;26.70;57.10;;;;;;5093446;28;20100;-74
2021/06/10 12:00:40;;;;;;;8.63;6.53;;;26.50;57.40;;;;;;5092825;28;20059;-74
2021/06/10 12:03:09;;;;;;;8.43;6.28;;;26.20;57.70;;;;;;5099852;28;20028;-73
2021/06/10 12:05:51;;;;;;;9.18;6.10;;;26.00;58.10;;;;;;5098965;28;20485;-74
2021/06/10 12:08:23;;;;;;;9.70;6.20;;;25.90;58.40;;;;;;5093116;28;20143;-74
2021/06/10 12:11:09;;;;;;;9.60;5.85;;;25.80;58.90;;;;;;5094624;28;20471;-73
2021/06/10 12:13:43;;;;;;;7.03;5.93;;;25.70;59.10;;;;;;5093219;28;20131;-73
2021/06/10 12:16:11;;;;;;;7.28;5.70;;;25.60;59.70;;;;;;5092905;28;20082;-73
2021/06/10 12:18:38;;;;;;;8.75;6.15;;;25.40;60.30;;;;;;5092343;28;20032;-73
2021/06/10 12:21:13;;;;;;;10.45;5.80;;;25.40;61.10;;;;;;5092473;28;20111;-73
2021/06/10 12:23:48;;;;;;;8.30;5.88;;;25.30;61.60;;;;;;5093266;28;20024;-73
2021/06/10 12:26:19;;;;;;;8.48;6.45;;;25.20;61.70;;;;;;5092871;28;20039;-73
2021/06/10 12:28:50;;;;;;;6.53;5.47;;;25.20;62.20;;;;;;5093327;28;20178;-74
2021/06/10 12:31:18;;;;;;;10.13;6.50;;;25.10;62.70;;;;;;5092637;28;20143;-73
2021/06/10 12:33:48;;;;;;;8.13;6.15;;;25.10;63.30;;;;;;5101609;28;20378;-73
2021/06/10 12:36:21;;;;;;;7.80;5.78;;;25.10;63.90;;;;;;5096794;28;20454;-73
2021/06/10 12:39:06;;;;;;;6.85;5.97;;;25.10;64.30;;;;;;5092329;28;20473;-73
2021/06/10 12:41:40;;;;;;;8.15;6.47;;;25.20;64.60;;;;;;5093500;28;20073;-73
2021/06/10 12:44:22;;;;;;;8.15;6.38;;;25.30;64.40;;;;;;5093150;28;20394;-73
2021/06/10 12:46:59;;;;;;;7.68;5.63;;;25.40;64.20;;;;;;5091862;28;20031;-73